This is the latest recevied weather packets stored in our database for station/object KB9GXK. If no packets are shown the sender has not sent any weather packets the latest 10 day(s).
| Time | Temp. | Humidity | Pressure | Rain* | Wind** | Luminosity | Snow |
|---|---|---|---|---|---|---|---|
| 1778102712 | 13.89° C | 36% | 1013.2 hPa | 0 mm | - | 218 W/m² | - |
| 1778102408 | 13.33° C | 37% | 1013.2 hPa | 0 mm | - | 241 W/m² | - |
| 1778102103 | 13.89° C | 37% | 1013.3 hPa | 0 mm | - | 224 W/m² | - |
| 1778101801 | 13.89° C | 36% | 1013.3 hPa | 0 mm | - | 253 W/m² | - |
| 1778101497 | 13.33° C | 36% | 1013.4 hPa | 0 mm | - | 202 W/m² | - |
| 1778101194 | 13.33° C | 36% | 1013.4 hPa | 0 mm | - | 165 W/m² | - |
| 1778100890 | 13.33° C | 35% | 1013.2 hPa | 0 mm | - | 224 W/m² | - |
| 1778100586 | 12.78° C | 35% | 1013.4 hPa | 0 mm | - | 213 W/m² | - |
| 1778100284 | 13.33° C | 37% | 1013.5 hPa | 0 mm | - | 192 W/m² | - |
| 1778099982 | 13.33° C | 36% | 1013.4 hPa | 0 mm | - | 174 W/m² | - |
| 1778099679 | 13.33° C | 35% | 1013.3 hPa | 0 mm | - | 198 W/m² | - |
| 1778099376 | 13.89° C | 34% | 1013.4 hPa | 0 mm | - | 234 W/m² | - |
| 1778099073 | 13.89° C | 35% | 1013.6 hPa | 0 mm | - | 248 W/m² | - |
| 1778098769 | 13.89° C | 33% | 1013.5 hPa | 0 mm | - | 219 W/m² | - |
| 1778098467 | 13.89° C | 35% | 1013.8 hPa | 0 mm | - | 190 W/m² | - |
| 1778098163 | 15° C | 32% | 1013.4 hPa | 0 mm | - | 235 W/m² | - |
| 1778097859 | 13.89° C | 34% | 1013.8 hPa | 0 mm | - | 415 W/m² | - |
| 1778097556 | 13.89° C | 34% | 1013.7 hPa | 0 mm | - | 252 W/m² | - |
| 1778097253 | 13.89° C | 37% | 1014 hPa | 0 mm | - | 343 W/m² | - |
| 1778096950 | 13.33° C | 35% | 1013.9 hPa | 0 mm | - | 223 W/m² | - |
| 1778096647 | 13.89° C | 35% | 1013.6 hPa | 0 mm | - | 247 W/m² | - |
| 1778096344 | 13.33° C | 36% | 1013.8 hPa | 0 mm | - | 256 W/m² | - |
| 1778096041 | 13.33° C | 35% | 1013.8 hPa | 0 mm | - | 219 W/m² | - |
| 1778095737 | 13.89° C | 34% | 1013.8 hPa | 0 mm | - | 224 W/m² | - |
| 1778095434 | 15° C | 34% | 1013.6 hPa | 0 mm | - | 254 W/m² | - |
* Rain latest hour (hover to see other rain measurements)
** Current wind speed in m/s (hover to see current wind gust speed)